createdAt,value
2016-12-26T00:00:51.964Z,10.78
2016-12-26T00:01:51.635Z,10.84
2016-12-26T00:02:51.619Z,10.83
2016-12-26T00:03:51.599Z,10.78
2016-12-26T00:04:51.584Z,10.81
2016-12-26T00:05:51.565Z,10.84
2016-12-26T00:06:51.871Z,10.83
2016-12-26T00:07:51.583Z,10.84
2016-12-26T00:08:51.521Z,10.88
2016-12-26T00:09:51.506Z,10.81
2016-12-26T00:10:51.489Z,10.88
2016-12-26T00:11:51.472Z,10.88
2016-12-26T00:12:51.455Z,10.88
2016-12-26T00:13:51.804Z,10.92
2016-12-26T00:14:51.430Z,10.88
2016-12-26T00:15:51.413Z,10.86
2016-12-26T00:16:51.396Z,10.86
2016-12-26T00:17:51.379Z,10.88
2016-12-26T00:18:51.364Z,10.8
2016-12-26T00:19:51.346Z,10.84
2016-12-26T00:20:51.331Z,10.88
2016-12-26T00:21:51.315Z,10.94
2016-12-26T00:22:51.300Z,10.89
2016-12-26T00:23:51.283Z,10.89
2016-12-26T00:24:51.270Z,10.86
2016-12-26T00:25:51.262Z,10.94
2016-12-26T00:26:51.238Z,10.94
2016-12-26T00:27:51.220Z,10.98
2016-12-26T00:28:51.521Z,10.92
2016-12-26T00:29:51.192Z,10.95
2016-12-26T00:30:51.175Z,10.98
2016-12-26T00:31:51.157Z,10.95
2016-12-26T00:32:51.173Z,11.03
2016-12-26T00:33:51.131Z,10.95
2016-12-26T00:34:51.522Z,10.95
2016-12-26T00:35:51.095Z,11.01
2016-12-26T00:36:51.393Z,11.02
2016-12-26T00:37:51.070Z,10.94
2016-12-26T00:38:51.052Z,10.99
2016-12-26T00:39:51.352Z,10.99
2016-12-26T00:40:51.016Z,11.09
2016-12-26T00:41:51.011Z,10.99
2016-12-26T00:42:51.308Z,10.99
2016-12-26T00:43:50.973Z,10.99
2016-12-26T00:44:50.961Z,11.02
2016-12-26T00:45:50.946Z,11.07
2016-12-26T00:46:50.920Z,10.95
2016-12-26T00:47:50.914Z,11.07
2016-12-26T00:48:51.207Z,11.07
2016-12-26T00:49:50.877Z,11.06
2016-12-26T00:50:50.864Z,11.06
2016-12-26T00:51:50.846Z,11.13
2016-12-26T00:52:50.836Z,11.02
2016-12-26T00:53:50.812Z,11.07
2016-12-26T00:54:50.794Z,11.1
2016-12-26T00:55:50.786Z,11.13
2016-12-26T00:56:50.767Z,11.11
2016-12-26T00:57:50.752Z,11.11
2016-12-26T00:58:50.740Z,11.1
2016-12-26T00:59:51.040Z,11.07
2016-12-26T01:00:50.712Z,11.14
2016-12-26T01:01:50.692Z,11.1
2016-12-26T01:02:50.990Z,11.16
2016-12-26T01:03:50.662Z,11.11
2016-12-26T01:04:50.703Z,11.07
2016-12-26T01:05:50.627Z,11.14
2016-12-26T01:06:50.613Z,11.07
2016-12-26T01:07:50.908Z,11.13
2016-12-26T01:08:50.581Z,11.11
2016-12-26T01:09:50.563Z,11.06
2016-12-26T01:10:50.551Z,11.11
2016-12-26T01:11:50.845Z,11.07
2016-12-26T01:12:50.513Z,11.1
2016-12-26T01:13:50.506Z,11.06
2016-12-26T01:14:50.802Z,11.07
2016-12-26T01:15:50.466Z,11.01
2016-12-26T01:16:50.459Z,11.06
2016-12-26T01:17:50.770Z,11.06
2016-12-26T01:18:50.426Z,11.07
2016-12-26T01:19:50.404Z,11.11
2016-12-26T01:20:50.392Z,11.09
2016-12-26T01:21:50.377Z,11.07
2016-12-26T01:22:50.361Z,11.16
2016-12-26T01:23:50.344Z,11.14
2016-12-26T01:24:50.326Z,11.1
2016-12-26T01:25:50.315Z,11.11
2016-12-26T01:26:50.612Z,11.17
2016-12-26T01:27:50.278Z,11.11
2016-12-26T01:28:50.269Z,11.17
2016-12-26T01:29:50.251Z,11.09
2016-12-26T01:30:50.259Z,11.19
2016-12-26T01:31:50.215Z,11.13
2016-12-26T01:32:50.204Z,11.13
2016-12-26T01:33:50.187Z,11.13
2016-12-26T01:34:50.171Z,11.14
2016-12-26T01:35:50.156Z,11.09
2016-12-26T01:36:50.139Z,11.13
2016-12-26T01:37:50.124Z,11.09
2016-12-26T01:38:50.432Z,11.11
2016-12-26T01:39:50.092Z,11.06
2016-12-26T01:40:50.079Z,11.1
2016-12-26T01:41:50.062Z,11.1
2016-12-26T01:42:50.364Z,11.06
2016-12-26T01:43:50.031Z,11.13
2016-12-26T01:44:50.326Z,11.09
2016-12-26T01:45:49.995Z,11.11
2016-12-26T01:46:49.979Z,11.09
2016-12-26T01:47:49.970Z,11.1
2016-12-26T01:48:49.955Z,11.09
2016-12-26T01:49:49.932Z,11.09
2016-12-26T01:50:49.918Z,11.03
2016-12-26T01:51:49.905Z,11.09
2016-12-26T01:52:49.888Z,11.03
2016-12-26T01:53:49.871Z,11.07
2016-12-26T01:54:49.862Z,11.03
2016-12-26T01:55:49.839Z,11.02
2016-12-26T01:56:49.835Z,11.09
2016-12-26T01:57:49.811Z,11.1
2016-12-26T01:58:49.795Z,11.1
2016-12-26T01:59:49.792Z,11.09
2016-12-26T02:00:49.767Z,11.13
2016-12-26T02:01:49.747Z,11.14
2016-12-26T02:02:49.734Z,11.14
2016-12-26T02:03:49.716Z,11.1
2016-12-26T02:04:49.699Z,11.14
2016-12-26T02:05:49.685Z,11.07
2016-12-26T02:06:49.982Z,11.13
2016-12-26T02:07:49.661Z,11.13
2016-12-26T02:08:49.638Z,11.13
2016-12-26T02:09:49.621Z,11.19
2016-12-26T02:10:49.608Z,11.17
2016-12-26T02:11:49.589Z,11.17
2016-12-26T02:12:49.582Z,11.16
2016-12-26T02:13:49.560Z,11.19
2016-12-26T02:14:49.541Z,11.13
2016-12-26T02:15:49.528Z,11.11
2016-12-26T02:16:49.513Z,11.11
2016-12-26T02:17:49.496Z,11.03
2016-12-26T02:18:49.481Z,11.09
2016-12-26T02:19:49.468Z,11.06
2016-12-26T02:20:49.449Z,11.1
2016-12-26T02:21:49.437Z,11.09
2016-12-26T02:22:49.420Z,11.03
2016-12-26T02:23:49.718Z,11.14
2016-12-26T02:24:49.387Z,11.1
2016-12-26T02:25:49.367Z,11.1
2016-12-26T02:26:49.360Z,11.03
2016-12-26T02:27:49.967Z,11.11
2016-12-26T02:28:49.321Z,11.13
2016-12-26T02:29:49.310Z,11.17
2016-12-26T02:30:49.297Z,11.16
2016-12-26T02:31:49.280Z,11.16
2016-12-26T02:32:49.584Z,11.1
2016-12-26T02:33:49.256Z,11.11
2016-12-26T02:34:49.227Z,11.09
2016-12-26T02:35:49.215Z,11.07
2016-12-26T02:36:49.198Z,11.16
2016-12-26T02:37:49.181Z,11.17
2016-12-26T02:38:49.163Z,11.16
2016-12-26T02:39:49.151Z,11.11
2016-12-26T02:40:49.133Z,11.14
2016-12-26T02:41:49.124Z,11.1
2016-12-26T02:42:49.101Z,11.16
2016-12-26T02:43:49.086Z,11.14
2016-12-26T02:44:49.074Z,11.1
2016-12-26T02:45:49.060Z,11.1
2016-12-26T02:46:49.043Z,11.1
2016-12-26T02:47:49.022Z,11.09
2016-12-26T02:48:49.012Z,11.1
2016-12-26T02:49:48.993Z,11.09
2016-12-26T02:50:48.985Z,11.07
2016-12-26T02:51:48.963Z,11.14
2016-12-26T02:52:48.943Z,11.1
2016-12-26T02:53:48.934Z,11.06
2016-12-26T02:54:48.912Z,11.09
2016-12-26T02:55:48.898Z,11.07
2016-12-26T02:56:48.881Z,11.03
2016-12-26T02:57:48.867Z,11.01
2016-12-26T02:58:49.214Z,11.03
2016-12-26T02:59:48.837Z,11.07
2016-12-26T03:00:48.819Z,11.02
2016-12-26T03:01:48.827Z,11.11
2016-12-26T03:02:48.786Z,11.03
2016-12-26T03:03:48.771Z,11.02
2016-12-26T03:04:48.792Z,11.02
2016-12-26T03:05:48.741Z,11.07
2016-12-26T03:06:49.082Z,10.98
2016-12-26T03:07:48.713Z,11.03
2016-12-26T03:08:48.692Z,11.01
2016-12-26T03:09:48.682Z,11.03
2016-12-26T03:10:48.658Z,11.06
2016-12-26T03:11:48.651Z,11.03
2016-12-26T03:12:48.631Z,11.03
2016-12-26T03:13:48.617Z,11.06
2016-12-26T03:14:48.600Z,11.06
2016-12-26T03:15:48.580Z,11.2
2016-12-26T03:16:48.594Z,11.07
2016-12-26T03:17:48.552Z,11.06
2016-12-26T03:18:48.539Z,11.13
2016-12-26T03:19:48.517Z,11.07
2016-12-26T03:20:48.816Z,11.09
2016-12-26T03:21:48.489Z,11.02
2016-12-26T03:22:48.477Z,11.03
2016-12-26T03:23:48.459Z,11.03
2016-12-26T03:24:48.439Z,11.01
2016-12-26T03:25:48.433Z,11.09
2016-12-26T03:26:48.407Z,11.02
2016-12-26T03:27:48.393Z,11.03
2016-12-26T03:28:48.377Z,11.01
2016-12-26T03:29:48.371Z,10.99
2016-12-26T03:30:48.345Z,10.99
2016-12-26T03:31:48.382Z,11.02
2016-12-26T03:32:48.314Z,10.98
2016-12-26T03:33:48.301Z,10.95
2016-12-26T03:34:48.284Z,11.01
2016-12-26T03:35:48.321Z,10.98
2016-12-26T03:36:48.256Z,10.92
2016-12-26T03:37:48.234Z,10.99
2016-12-26T03:38:48.537Z,10.99
2016-12-26T03:39:48.265Z,10.98
2016-12-26T03:40:48.191Z,10.96
2016-12-26T03:41:48.486Z,10.95
2016-12-26T03:42:48.163Z,11.01
2016-12-26T03:43:48.151Z,11.01
2016-12-26T03:44:48.126Z,10.94
2016-12-26T03:45:48.110Z,10.98
2016-12-26T03:46:48.096Z,10.92
2016-12-26T03:47:48.078Z,11.01
2016-12-26T03:48:48.376Z,10.96
2016-12-26T03:49:48.046Z,10.95
2016-12-26T03:50:48.347Z,10.94
2016-12-26T03:51:48.060Z,10.89
2016-12-26T03:52:48.000Z,10.86
2016-12-26T03:53:47.987Z,10.84
2016-12-26T03:54:48.284Z,10.88
2016-12-26T03:55:47.950Z,10.83
2016-12-26T03:56:47.939Z,10.88
2016-12-26T03:57:47.925Z,10.84
2016-12-26T03:58:47.920Z,10.91
2016-12-26T03:59:47.891Z,10.92
2016-12-26T04:00:48.188Z,10.88
2016-12-26T04:01:48.168Z,10.98
2016-12-26T04:02:47.841Z,10.88
2016-12-26T04:03:47.816Z,10.84
2016-12-26T04:04:47.805Z,10.88
2016-12-26T04:05:48.107Z,10.88
2016-12-26T04:06:48.090Z,10.77
2016-12-26T04:07:47.818Z,10.84
2016-12-26T04:08:47.750Z,10.78
2016-12-26T04:09:47.731Z,10.81
2016-12-26T04:10:47.717Z,10.84
2016-12-26T04:11:47.700Z,10.88
2016-12-26T04:12:47.999Z,10.81
2016-12-26T04:13:47.671Z,10.8
2016-12-26T04:14:47.969Z,10.81
2016-12-26T04:15:47.636Z,10.78
2016-12-26T04:16:47.618Z,10.77
2016-12-26T04:17:47.613Z,10.78
2016-12-26T04:18:47.646Z,10.83
2016-12-26T04:19:47.922Z,10.73
2016-12-26T04:20:47.553Z,10.8
2016-12-26T04:21:47.544Z,10.81
2016-12-26T04:22:47.524Z,10.77
2016-12-26T04:23:47.505Z,10.78
2016-12-26T04:24:47.492Z,10.8
2016-12-26T04:25:47.477Z,10.8
2016-12-26T04:26:47.460Z,10.8
2016-12-26T04:27:47.441Z,10.83
2016-12-26T04:28:47.425Z,10.83
2016-12-26T04:29:47.466Z,10.78
2016-12-26T04:30:47.395Z,10.83
2016-12-26T04:31:47.410Z,10.78
2016-12-26T04:32:47.366Z,10.78
2016-12-26T04:33:47.995Z,10.78
2016-12-26T04:34:47.331Z,10.73
2016-12-26T04:35:47.829Z,10.76
2016-12-26T04:36:47.300Z,10.74
2016-12-26T04:37:47.282Z,10.83
2016-12-26T04:38:47.266Z,10.8
2016-12-26T04:39:47.250Z,10.77
2016-12-26T04:40:47.236Z,10.8
2016-12-26T04:41:47.533Z,10.78
2016-12-26T04:42:47.209Z,10.76
2016-12-26T04:43:47.190Z,10.86
2016-12-26T04:44:47.489Z,10.83
2016-12-26T04:45:47.157Z,10.76
2016-12-26T04:46:47.144Z,10.8
2016-12-26T04:47:47.122Z,10.83
2016-12-26T04:48:47.106Z,10.83
2016-12-26T04:49:47.087Z,10.76
2016-12-26T04:50:47.388Z,10.78
2016-12-26T04:51:47.062Z,10.76
2016-12-26T04:52:47.366Z,10.78
2016-12-26T04:53:47.656Z,10.83
2016-12-26T04:54:47.020Z,10.8
2016-12-26T04:55:47.003Z,10.83
2016-12-26T04:56:46.978Z,10.68
2016-12-26T04:57:46.971Z,10.77
2016-12-26T04:58:46.968Z,10.78
2016-12-26T04:59:47.032Z,10.73
2016-12-26T05:00:46.918Z,10.74
2016-12-26T05:01:46.913Z,10.77
2016-12-26T05:02:46.890Z,10.76
2016-12-26T05:03:46.870Z,10.73
2016-12-26T05:04:46.866Z,10.71
2016-12-26T05:05:47.150Z,10.78
2016-12-26T05:06:46.875Z,10.8
2016-12-26T05:07:46.816Z,10.76
2016-12-26T05:08:46.794Z,10.71
2016-12-26T05:09:46.772Z,10.73
2016-12-26T05:10:46.758Z,10.71
2016-12-26T05:11:46.746Z,10.77
2016-12-26T05:12:46.726Z,10.7
2016-12-26T05:13:46.711Z,10.73
2016-12-26T05:14:47.006Z,10.71
2016-12-26T05:15:46.679Z,10.8
2016-12-26T05:16:46.658Z,10.77
2016-12-26T05:17:46.646Z,10.73
2016-12-26T05:18:46.631Z,10.76
2016-12-26T05:19:46.925Z,10.7
2016-12-26T05:20:46.926Z,10.7
2016-12-26T05:21:46.582Z,10.74
2016-12-26T05:22:46.566Z,10.73
2016-12-26T05:23:46.580Z,10.7
2016-12-26T05:24:46.533Z,10.73
2016-12-26T05:25:46.522Z,10.73
2016-12-26T05:26:46.501Z,10.66
2016-12-26T05:27:46.486Z,10.73
2016-12-26T05:28:46.498Z,10.7
2016-12-26T05:29:46.772Z,10.74
2016-12-26T05:30:46.443Z,10.73
2016-12-26T05:31:46.739Z,10.77
2016-12-26T05:32:46.409Z,10.76
2016-12-26T05:33:46.422Z,10.73
2016-12-26T05:34:46.690Z,10.73
2016-12-26T05:35:46.365Z,10.7
2016-12-26T05:36:46.340Z,10.73
2016-12-26T05:37:46.340Z,10.71
2016-12-26T05:38:46.306Z,10.71
2016-12-26T05:39:46.609Z,10.77
2016-12-26T05:40:46.282Z,10.68
2016-12-26T05:41:46.285Z,10.66
2016-12-26T05:42:46.246Z,10.76
2016-12-26T05:43:46.546Z,10.71
2016-12-26T05:44:46.213Z,10.73
2016-12-26T05:45:46.826Z,10.66
2016-12-26T05:46:46.185Z,10.73
2016-12-26T05:47:46.180Z,10.7
2016-12-26T05:48:46.471Z,10.71
2016-12-26T05:49:46.131Z,10.7
2016-12-26T05:50:46.114Z,10.65
2016-12-26T05:51:46.421Z,10.71
2016-12-26T05:52:46.135Z,10.73
2016-12-26T05:53:46.069Z,10.8
2016-12-26T05:54:46.057Z,10.71
2016-12-26T05:55:46.039Z,10.78
2016-12-26T05:56:46.020Z,10.74
2016-12-26T05:57:46.005Z,10.76
2016-12-26T05:58:45.986Z,10.71
2016-12-26T05:59:46.024Z,10.71
2016-12-26T06:00:45.983Z,10.78
2016-12-26T06:01:45.941Z,10.78
2016-12-26T06:02:45.980Z,10.73
2016-12-26T06:03:45.917Z,10.74
2016-12-26T06:04:45.895Z,10.8
2016-12-26T06:05:45.874Z,10.83
2016-12-26T06:06:45.864Z,10.73
2016-12-26T06:07:45.844Z,10.84
2016-12-26T06:08:45.832Z,10.8
2016-12-26T06:09:45.810Z,10.73
2016-12-26T06:10:45.796Z,10.74
2016-12-26T06:11:46.093Z,10.8
2016-12-26T06:12:45.766Z,10.74
2016-12-26T06:13:45.761Z,10.81
2016-12-26T06:14:45.734Z,10.73
2016-12-26T06:15:45.723Z,10.8
2016-12-26T06:16:45.705Z,10.76
2016-12-26T06:17:45.683Z,10.8
2016-12-26T06:18:45.671Z,10.73
2016-12-26T06:19:45.650Z,10.83
2016-12-26T06:20:45.637Z,10.76
2016-12-26T06:21:45.622Z,10.83
2016-12-26T06:22:45.600Z,10.83
2016-12-26T06:23:45.589Z,10.71
2016-12-26T06:24:45.625Z,10.8
2016-12-26T06:25:45.558Z,10.8
2016-12-26T06:26:45.543Z,10.74
2016-12-26T06:27:45.526Z,10.8
2016-12-26T06:28:45.822Z,10.81
2016-12-26T06:29:45.494Z,10.8
2016-12-26T06:30:45.478Z,10.78
2016-12-26T06:31:45.460Z,10.8
2016-12-26T06:32:45.443Z,10.76
2016-12-26T06:33:45.427Z,10.8
2016-12-26T06:34:45.411Z,10.78
2016-12-26T06:35:45.596Z,10.74
2016-12-26T06:36:45.692Z,10.74
2016-12-26T06:37:45.363Z,10.78
2016-12-26T06:38:45.349Z,10.83
2016-12-26T06:39:45.334Z,10.81
2016-12-26T06:40:45.330Z,10.73
2016-12-26T06:41:45.308Z,10.8
2016-12-26T06:42:45.294Z,10.8
2016-12-26T06:43:45.270Z,10.81
2016-12-26T06:44:45.258Z,10.86
2016-12-26T06:45:45.237Z,10.8
2016-12-26T06:46:45.535Z,10.78
2016-12-26T06:47:45.204Z,10.78
2016-12-26T06:48:45.188Z,10.8
2016-12-26T06:49:45.169Z,10.83
2016-12-26T06:50:45.162Z,10.76
2016-12-26T06:51:45.140Z,10.77
2016-12-26T06:52:45.129Z,10.76
2016-12-26T06:53:45.109Z,10.88
2016-12-26T06:54:45.142Z,10.77
2016-12-26T06:55:45.076Z,10.78
2016-12-26T06:56:45.370Z,10.8
2016-12-26T06:57:45.048Z,10.83
2016-12-26T06:58:45.036Z,10.77
2016-12-26T06:59:45.015Z,10.76
2016-12-26T07:00:45.001Z,10.8
2016-12-26T07:01:44.981Z,10.8
2016-12-26T07:02:44.968Z,10.83
2016-12-26T07:03:44.948Z,10.83
2016-12-26T07:04:44.933Z,10.88
2016-12-26T07:05:44.918Z,10.81
2016-12-26T07:06:44.904Z,10.8
2016-12-26T07:07:44.888Z,10.88
2016-12-26T07:08:44.868Z,10.8
2016-12-26T07:09:44.855Z,10.78
2016-12-26T07:10:44.839Z,10.84
2016-12-26T07:11:44.824Z,10.86
2016-12-26T07:12:44.804Z,10.88
2016-12-26T07:13:44.792Z,10.84
2016-12-26T07:14:44.776Z,10.84
2016-12-26T07:15:44.759Z,10.81
2016-12-26T07:16:44.745Z,10.89
2016-12-26T07:17:44.737Z,10.98
2016-12-26T07:18:44.714Z,10.86
2016-12-26T07:19:44.697Z,10.81
2016-12-26T07:20:44.685Z,10.98
2016-12-26T07:21:44.672Z,10.98
2016-12-26T07:22:44.650Z,10.91
2016-12-26T07:23:44.641Z,10.78
2016-12-26T07:24:44.618Z,10.91
2016-12-26T07:25:44.595Z,10.81
2016-12-26T07:26:44.894Z,10.84
2016-12-26T07:27:44.882Z,10.91
2016-12-26T07:28:44.598Z,10.89
2016-12-26T07:29:44.583Z,10.95
2016-12-26T07:30:44.518Z,10.89
2016-12-26T07:31:44.514Z,10.92
2016-12-26T07:32:44.482Z,10.98
2016-12-26T07:33:44.475Z,10.92
2016-12-26T07:34:44.456Z,10.96
2016-12-26T07:35:44.435Z,10.92
2016-12-26T07:36:44.730Z,11.01
2016-12-26T07:37:44.406Z,10.95
2016-12-26T07:38:44.395Z,10.95
2016-12-26T07:39:44.378Z,10.99
2016-12-26T07:40:44.358Z,10.96
2016-12-26T07:41:44.343Z,10.92
2016-12-26T07:42:44.330Z,10.95
2016-12-26T07:43:44.637Z,10.99
2016-12-26T07:44:44.299Z,10.95
2016-12-26T07:45:44.279Z,10.98
2016-12-26T07:46:44.263Z,10.94
2016-12-26T07:47:44.243Z,10.84
2016-12-26T07:48:44.229Z,10.94
2016-12-26T07:49:44.219Z,10.92
2016-12-26T07:50:44.226Z,10.92
2016-12-26T07:51:44.185Z,10.95
2016-12-26T07:52:44.165Z,10.95
2016-12-26T07:53:44.154Z,10.95
2016-12-26T07:54:44.141Z,10.92
2016-12-26T07:55:44.123Z,10.98
2016-12-26T07:56:44.110Z,10.99
2016-12-26T07:57:44.401Z,10.98
2016-12-26T07:58:44.384Z,10.98
2016-12-26T07:59:44.054Z,10.96
2016-12-26T08:00:44.038Z,10.95
2016-12-26T08:01:44.027Z,10.99
2016-12-26T08:02:44.315Z,10.89
2016-12-26T08:03:43.994Z,10.92
2016-12-26T08:04:43.976Z,10.92
2016-12-26T08:05:43.965Z,10.99
2016-12-26T08:06:43.946Z,10.96
2016-12-26T08:07:43.976Z,10.94
2016-12-26T08:08:44.226Z,10.94
2016-12-26T08:09:43.898Z,11.01
2016-12-26T08:10:43.890Z,10.92
2016-12-26T08:11:43.860Z,10.94
2016-12-26T08:12:44.166Z,10.99
2016-12-26T08:13:43.835Z,10.86
2016-12-26T08:14:43.819Z,10.98
2016-12-26T08:15:43.804Z,10.92
2016-12-26T08:16:44.099Z,10.96
2016-12-26T08:17:44.085Z,10.99
2016-12-26T08:18:44.066Z,10.99
2016-12-26T08:19:43.741Z,10.94
2016-12-26T08:20:43.762Z,10.98
2016-12-26T08:21:43.709Z,10.99
2016-12-26T08:22:44.860Z,10.96
2016-12-26T08:23:43.693Z,10.96
2016-12-26T08:24:43.658Z,10.95
2016-12-26T08:25:43.650Z,11.02
2016-12-26T08:26:43.939Z,11.02
2016-12-26T08:27:43.617Z,11.01
2016-12-26T08:28:43.917Z,10.99
2016-12-26T08:29:43.902Z,10.99
2016-12-26T08:30:43.562Z,10.99
2016-12-26T08:31:43.579Z,11.01
2016-12-26T08:32:43.530Z,11.09
2016-12-26T08:33:43.528Z,11.09
2016-12-26T08:34:43.582Z,11.01
2016-12-26T08:35:43.691Z,11.01
2016-12-26T08:36:43.796Z,11.09
2016-12-26T08:37:43.452Z,11.02
2016-12-26T08:38:43.752Z,10.99
2016-12-26T08:39:43.420Z,10.99
2016-12-26T08:40:43.415Z,10.99
2016-12-26T08:41:43.395Z,10.98
2016-12-26T08:42:43.690Z,10.44
2016-12-26T08:43:43.667Z,10.01
2016-12-26T08:44:43.655Z,9.83
2016-12-26T08:45:43.644Z,9.66
2016-12-26T08:46:43.343Z,9.48
2016-12-26T08:47:43.333Z,9.27
2016-12-26T08:48:43.284Z,9.24
2016-12-26T08:49:43.261Z,9.15
2016-12-26T08:50:43.247Z,9.04
2016-12-26T08:51:43.239Z,8.93
2016-12-26T08:52:43.213Z,8.79
2016-12-26T08:53:43.248Z,8.81
2016-12-26T08:54:43.181Z,8.83
2016-12-26T08:55:43.163Z,8.78
2016-12-26T08:56:43.148Z,8.76
2016-12-26T08:57:43.134Z,8.79
2016-12-26T08:58:43.123Z,8.79
2016-12-26T08:59:43.101Z,8.69
2016-12-26T09:00:43.393Z,8.75
2016-12-26T09:01:43.099Z,8.69
2016-12-26T09:02:43.053Z,8.53
2016-12-26T09:03:43.032Z,8.62
2016-12-26T09:04:43.020Z,8.66
2016-12-26T09:05:43.001Z,8.63
2016-12-26T09:06:42.983Z,8.68
2016-12-26T09:07:42.973Z,8.6
2016-12-26T09:08:42.949Z,8.6
2016-12-26T09:09:42.935Z,8.62
2016-12-26T09:10:43.230Z,8.66
2016-12-26T09:11:43.218Z,8.57
2016-12-26T09:12:43.192Z,8.55
2016-12-26T09:13:42.868Z,8.5
2016-12-26T09:14:42.879Z,8.55
2016-12-26T09:15:42.831Z,8.42
2016-12-26T09:16:42.816Z,8.44
2016-12-26T09:17:42.835Z,8.4
2016-12-26T09:18:42.781Z,8.32
2016-12-26T09:19:42.763Z,8.29
2016-12-26T09:20:43.059Z,8.36
2016-12-26T09:21:43.047Z,8.22
2016-12-26T09:22:42.709Z,8.36
2016-12-26T09:23:42.694Z,8.22
2016-12-26T09:24:42.684Z,8.37
2016-12-26T09:25:42.664Z,8.32
2016-12-26T09:26:42.641Z,8.26
2016-12-26T09:27:42.625Z,8.26
2016-12-26T09:28:42.613Z,8.33
2016-12-26T09:29:42.600Z,8.18
2016-12-26T09:30:42.887Z,8.11
2016-12-26T09:31:42.556Z,8.11
2016-12-26T09:32:42.548Z,8.03
2016-12-26T09:33:42.838Z,8.03
2016-12-26T09:34:42.887Z,7.94
2016-12-26T09:35:42.490Z,7.84
2016-12-26T09:36:42.476Z,7.78
2016-12-26T09:37:42.454Z,7.79
2016-12-26T09:38:42.441Z,7.63
2016-12-26T09:39:42.423Z,7.66
2016-12-26T09:40:42.718Z,7.67
2016-12-26T09:41:42.422Z,7.62
2016-12-26T09:42:42.369Z,7.6
2016-12-26T09:43:42.354Z,7.55
2016-12-26T09:44:42.331Z,7.56
2016-12-26T09:45:42.321Z,7.53
2016-12-26T09:46:42.304Z,7.56
2016-12-26T09:47:42.281Z,7.56
2016-12-26T09:48:42.266Z,7.55
2016-12-26T09:49:42.249Z,7.55
2016-12-26T09:50:42.226Z,7.56
2016-12-26T09:51:42.219Z,7.53
2016-12-26T09:52:42.514Z,7.53
2016-12-26T09:53:42.178Z,7.55
2016-12-26T09:54:42.159Z,7.55
2016-12-26T09:55:42.142Z,7.58
2016-12-26T09:56:42.131Z,7.55
2016-12-26T09:57:42.110Z,7.5
2016-12-26T09:58:42.092Z,7.47
2016-12-26T09:59:42.381Z,7.49
2016-12-26T10:00:42.059Z,7.41
2016-12-26T10:01:42.512Z,7.44
2016-12-26T10:02:42.020Z,7.44
2016-12-26T10:03:42.004Z,7.45
2016-12-26T10:04:41.980Z,7.4
2016-12-26T10:05:42.273Z,7.37
2016-12-26T10:06:41.946Z,7.32
2016-12-26T10:07:41.926Z,7.42
2016-12-26T10:08:41.904Z,7.31
2016-12-26T10:09:41.891Z,7.32
2016-12-26T10:10:42.494Z,7.37
2016-12-26T10:11:41.856Z,7.44
2016-12-26T10:12:41.838Z,7.49
2016-12-26T10:13:41.845Z,7.35
2016-12-26T10:14:41.800Z,7.38
2016-12-26T10:15:41.782Z,7.49
2016-12-26T10:16:41.764Z,7.55
2016-12-26T10:17:41.752Z,7.59
2016-12-26T10:18:41.729Z,7.45
2016-12-26T10:19:41.714Z,7.56
2016-12-26T10:20:42.002Z,7.53
2016-12-26T10:21:41.676Z,7.58
2016-12-26T10:22:41.657Z,7.47
2016-12-26T10:23:41.641Z,7.55
2016-12-26T10:24:41.624Z,7.58
2016-12-26T10:25:41.604Z,7.52
2016-12-26T10:26:41.585Z,7.47
2016-12-26T10:27:41.572Z,7.55
2016-12-26T10:28:41.548Z,7.5
2016-12-26T10:29:41.840Z,7.53
2016-12-26T10:30:41.515Z,7.58
2016-12-26T10:31:41.839Z,7.47
2016-12-26T10:32:41.472Z,7.58
2016-12-26T10:33:42.085Z,7.5
2016-12-26T10:34:41.439Z,7.47
2016-12-26T10:35:41.619Z,7.58
2016-12-26T10:36:41.746Z,7.62
2016-12-26T10:37:41.385Z,7.58
2016-12-26T10:38:41.366Z,7.55
2016-12-26T10:39:41.345Z,7.62
2016-12-26T10:40:41.360Z,7.62
2016-12-26T10:41:41.626Z,7.67
2016-12-26T10:42:41.313Z,7.58
2016-12-26T10:43:41.279Z,7.6
2016-12-26T10:44:41.569Z,7.62
2016-12-26T10:45:41.243Z,7.63
2016-12-26T10:46:41.223Z,7.66
2016-12-26T10:47:41.200Z,7.71
2016-12-26T10:48:41.202Z,7.67
2016-12-26T10:49:41.477Z,7.71
2016-12-26T10:50:41.199Z,7.71
2016-12-26T10:51:41.128Z,7.67
2016-12-26T10:52:41.113Z,7.77
2016-12-26T10:53:41.096Z,7.79
2016-12-26T10:54:41.077Z,7.77
2016-12-26T10:55:41.079Z,7.78
2016-12-26T10:56:41.350Z,7.75
2016-12-26T10:57:41.017Z,7.82
2016-12-26T10:58:41.019Z,7.9
2016-12-26T10:59:41.001Z,7.89
2016-12-26T11:00:41.290Z,7.85
2016-12-26T11:01:40.954Z,7.85
2016-12-26T11:02:40.929Z,7.97
2016-12-26T11:03:40.912Z,7.94
2016-12-26T11:04:40.894Z,8.03
2016-12-26T11:05:40.881Z,8.1
2016-12-26T11:06:41.185Z,8.11
2016-12-26T11:07:40.844Z,8.11
2016-12-26T11:08:41.136Z,8.15
2016-12-26T11:09:40.803Z,8.15
2016-12-26T11:10:40.790Z,8.14
2016-12-26T11:11:40.772Z,8.12
2016-12-26T11:12:40.750Z,8.12
2016-12-26T11:13:40.729Z,8.25
2016-12-26T11:14:40.714Z,8.2
2016-12-26T11:15:40.699Z,8.28
2016-12-26T11:16:40.679Z,8.18
2016-12-26T11:17:40.668Z,8.2
2016-12-26T11:18:40.641Z,8.25
2016-12-26T11:19:40.627Z,8.26
2016-12-26T11:20:40.613Z,8.32
2016-12-26T11:21:40.591Z,8.36
2016-12-26T11:22:40.578Z,8.35
2016-12-26T11:23:40.562Z,8.35
2016-12-26T11:24:40.852Z,8.44
2016-12-26T11:25:40.524Z,8.3
2016-12-26T11:26:40.503Z,8.4
2016-12-26T11:27:40.489Z,8.4
2016-12-26T11:28:40.474Z,8.32
2016-12-26T11:29:40.452Z,8.33
2016-12-26T11:30:40.436Z,8.36
2016-12-26T11:31:40.741Z,8.35
2016-12-26T11:32:40.723Z,8.35
2016-12-26T11:33:40.387Z,8.25
2016-12-26T11:34:40.376Z,8.25
2016-12-26T11:35:40.359Z,8.32
2016-12-26T11:36:40.335Z,8.2
2016-12-26T11:37:40.322Z,8.22
2016-12-26T11:38:40.303Z,8.32
2016-12-26T11:39:40.283Z,8.33
2016-12-26T11:40:40.269Z,8.36
2016-12-26T11:41:40.247Z,8.37
2016-12-26T11:42:40.235Z,8.42
2016-12-26T11:43:40.216Z,8.37
2016-12-26T11:44:40.195Z,8.51
2016-12-26T11:45:40.178Z,8.54
2016-12-26T11:46:40.160Z,8.58
2016-12-26T11:47:40.148Z,8.68
2016-12-26T11:48:40.127Z,8.6
2016-12-26T11:49:40.421Z,8.51
2016-12-26T11:50:40.095Z,8.58
2016-12-26T11:51:40.073Z,8.71
2016-12-26T11:52:40.060Z,8.69
2016-12-26T11:53:40.054Z,8.71
2016-12-26T11:54:40.029Z,8.79
2016-12-26T11:55:40.004Z,8.81
2016-12-26T11:56:39.991Z,8.72
2016-12-26T11:57:39.977Z,8.84
2016-12-26T11:58:40.288Z,8.87
2016-12-26T11:59:39.948Z,8.79
2016-12-26T12:00:39.929Z,8.84
2016-12-26T12:01:39.931Z,8.86
2016-12-26T12:02:39.902Z,8.78
2016-12-26T12:03:39.876Z,8.88
2016-12-26T12:04:39.859Z,8.81
2016-12-26T12:05:39.841Z,8.96
2016-12-26T12:06:39.832Z,8.93
2016-12-26T12:07:39.811Z,8.96
2016-12-26T12:08:39.791Z,9.01
2016-12-26T12:09:39.775Z,9.09
2016-12-26T12:10:40.066Z,9.21
2016-12-26T12:11:39.742Z,9.28
2016-12-26T12:12:39.728Z,9.43
2016-12-26T12:13:39.727Z,9.43
2016-12-26T12:14:39.698Z,9.45
2016-12-26T12:15:39.680Z,9.43
2016-12-26T12:16:39.664Z,9.57
2016-12-26T12:17:39.642Z,9.57
2016-12-26T12:18:39.958Z,9.66
2016-12-26T12:19:39.664Z,9.82
2016-12-26T12:20:39.596Z,9.82
2016-12-26T12:21:39.582Z,9.97
2016-12-26T12:22:39.572Z,9.79
2016-12-26T12:23:39.553Z,9.76
2016-12-26T12:24:39.570Z,9.7
2016-12-26T12:25:39.523Z,9.6
2016-12-26T12:26:39.514Z,9.57
2016-12-26T12:27:39.495Z,9.57
2016-12-26T12:28:39.481Z,9.43
2016-12-26T12:29:39.470Z,9.32
2016-12-26T12:30:39.455Z,9.25
2016-12-26T12:31:39.434Z,9.34
2016-12-26T12:32:39.922Z,9.31
2016-12-26T12:33:39.757Z,9.31
2016-12-26T12:34:39.401Z,9.45
2016-12-26T12:35:39.785Z,9.45
2016-12-26T12:36:39.363Z,9.35
2016-12-26T12:37:39.453Z,9.32
2016-12-26T12:38:39.334Z,9.39
2016-12-26T12:39:39.627Z,9.32
2016-12-26T12:40:39.299Z,9.28
2016-12-26T12:41:39.293Z,9.28
2016-12-26T12:42:39.294Z,9.28
2016-12-26T12:43:39.251Z,9.43
2016-12-26T12:44:39.251Z,9.57
2016-12-26T12:45:39.232Z,9.42
2016-12-26T12:46:39.210Z,9.25
2016-12-26T12:47:39.191Z,9.3
2016-12-26T12:48:39.174Z,9.3
2016-12-26T12:49:39.165Z,9.27
2016-12-26T12:50:39.148Z,9.28
2016-12-26T12:51:39.134Z,9.21
2016-12-26T12:52:39.162Z,9.2
2016-12-26T12:53:39.100Z,9.18
2016-12-26T12:54:39.082Z,9.21
2016-12-26T12:55:39.387Z,9.39
2016-12-26T12:56:39.060Z,9.32
2016-12-26T12:57:39.033Z,9.35
2016-12-26T12:58:39.019Z,9.45
2016-12-26T12:59:39.002Z,9.43
2016-12-26T13:00:38.991Z,9.45
2016-12-26T13:01:38.977Z,9.43
2016-12-26T13:02:39.269Z,9.27
2016-12-26T13:03:38.947Z,9.27